Time;durP1;ratioP1;P1;durP2;ratioP2;P2;SDS_P1;SDS_P2;PMS_P1;PMS_P2;Temp;Humidity;BMP_temperature;BMP_pressure;BME280_temperature;BME280_humidity;BME280_pressure;Samples;Min_cycle;Max_cycle;Signal;HPM_P1;HPM_P2
2024/03/10 00:00:16;;;;;;;4.67;1.10;;;27.80;56.40;;;;;;5048125;28;20302;-72
2024/03/10 00:02:43;;;;;;;3.90;1.40;;;27.50;56.70;;;;;;5049633;28;20180;-73
2024/03/10 00:05:14;;;;;;;3.93;1.30;;;27.70;57.60;;;;;;5031911;28;20184;-73
2024/03/10 00:07:43;;;;;;;4.10;1.07;;;27.70;56.80;;;;;;5050634;28;20176;-72
2024/03/10 00:10:14;;;;;;;6.57;1.60;;;27.50;56.10;;;;;;5024945;28;20186;-73
2024/03/10 00:12:48;;;;;;;6.87;1.20;;;27.60;55.90;;;;;;5049900;28;20183;-72
2024/03/10 00:15:16;;;;;;;5.43;1.37;;;27.70;54.80;;;;;;5044421;28;20637;-72
2024/03/10 00:17:45;;;;;;;5.30;1.30;;;27.50;55.80;;;;;;5050065;28;20271;-74
2024/03/10 00:20:13;;;;;;;2.37;1.00;;;27.80;56.00;;;;;;5047771;28;20697;-71
2024/03/10 00:22:41;;;;;;;4.47;1.27;;;28.20;52.90;;;;;;5049660;28;20194;-72
2024/03/10 00:25:09;;;;;;;3.20;0.90;;;28.10;52.10;;;;;;5026442;28;20650;-72
2024/03/10 00:27:37;;;;;;;6.03;1.10;;;28.50;51.00;;;;;;5051669;28;20171;-72
2024/03/10 00:30:10;;;;;;;3.73;1.13;;;28.70;48.40;;;;;;5048299;28;20176;-70
2024/03/10 00:32:38;;;;;;;4.33;1.10;;;28.80;49.20;;;;;;5053593;28;20184;-74
2024/03/10 00:35:06;;;;;;;4.93;0.90;;;28.90;49.00;;;;;;5049609;28;20250;-74
2024/03/10 00:37:35;;;;;;;2.63;1.00;;;29.00;47.70;;;;;;5049755;28;20537;-74
2024/03/10 00:40:07;;;;;;;2.63;1.10;;;28.90;47.00;;;;;;5030888;28;20222;-73
2024/03/10 00:42:35;;;;;;;5.13;1.03;;;29.00;47.60;;;;;;5053459;28;20187;-75
2024/03/10 00:45:02;;;;;;;2.03;0.97;;;29.10;46.90;;;;;;5051099;28;20335;-73
2024/03/10 00:47:29;;;;;;;5.30;1.43;;;29.20;48.80;;;;;;5052621;28;20180;-71
2024/03/10 00:49:56;;;;;;;8.37;1.00;;;29.30;47.80;;;;;;5051467;28;20192;-71
2024/03/10 00:52:24;;;;;;;4.70;1.40;;;29.10;48.20;;;;;;5053901;28;20187;-74
2024/03/10 00:54:54;;;;;;;4.87;1.20;;;29.20;48.50;;;;;;5052260;28;20619;-75
2024/03/10 00:57:21;;;;;;;6.30;1.60;;;29.20;48.50;;;;;;5052816;28;20183;-71
2024/03/10 00:59:49;;;;;;;3.97;1.10;;;29.30;48.20;;;;;;5047747;28;20274;-73
2024/03/10 01:02:20;;;;;;;3.67;1.00;;;29.40;48.00;;;;;;5050971;28;20176;-73
2024/03/10 01:04:48;;;;;;;5.70;1.07;;;29.20;48.40;;;;;;5050484;28;20537;-73
2024/03/10 01:07:15;;;;;;;6.73;1.27;;;29.00;47.70;;;;;;5044867;28;20271;-72
2024/03/10 01:09:43;;;;;;;3.63;0.97;;;28.90;48.60;;;;;;5049217;28;20184;-73
2024/03/10 01:12:10;;;;;;;5.27;1.23;;;29.10;49.20;;;;;;5051091;28;20656;-73
2024/03/10 01:14:38;;;;;;;3.60;1.30;;;29.10;49.20;;;;;;5051042;28;20203;-71
2024/03/10 01:17:08;;;;;;;6.63;1.40;;;28.90;46.90;;;;;;5036307;28;20696;-75
2024/03/10 01:19:39;;;;;;;4.10;1.07;;;29.20;48.50;;;;;;5045930;28;20215;-74
2024/03/10 01:22:06;;;;;;;5.57;1.10;;;29.30;47.00;;;;;;5048470;28;20233;-74
2024/03/10 01:24:34;;;;;;;8.47;1.07;;;29.20;47.80;;;;;;5051577;28;20207;-74
2024/03/10 01:27:02;;;;;;;3.50;1.00;;;29.20;48.10;;;;;;5034671;28;20184;-75
2024/03/10 01:29:30;;;;;;;3.70;1.13;;;29.50;47.50;;;;;;5050332;28;20188;-72
2024/03/10 01:31:58;;;;;;;7.10;1.20;;;29.50;47.10;;;;;;5050912;28;20177;-72
2024/03/10 01:34:25;;;;;;;4.07;1.10;;;29.70;48.00;;;;;;5045970;28;20247;-72
2024/03/10 01:36:52;;;;;;;7.33;1.50;;;29.60;48.50;;;;;;5051438;28;20180;-72
2024/03/10 01:39:20;;;;;;;4.97;1.10;;;29.50;48.90;;;;;;5051556;28;20285;-71
2024/03/10 01:41:47;;;;;;;2.77;1.07;;;29.40;49.20;;;;;;5049290;28;20195;-70
2024/03/10 01:44:15;;;;;;;6.60;1.10;;;29.60;48.80;;;;;;5050109;28;20330;-73
2024/03/10 01:46:42;;;;;;;4.87;1.40;;;29.90;48.40;;;;;;5049161;28;20186;-73
2024/03/10 01:49:10;;;;;;;3.90;1.17;;;30.20;48.20;;;;;;5050999;28;20184;-71
2024/03/10 01:51:41;;;;;;;3.87;1.07;;;30.10;48.80;;;;;;5048824;28;20540;-72
2024/03/10 01:54:12;;;;;;;4.80;1.20;;;30.00;49.20;;;;;;5050334;28;20647;-70
2024/03/10 01:56:39;;;;;;;4.23;1.10;;;29.90;50.30;;;;;;5046469;28;20184;-71
2024/03/10 01:59:10;;;;;;;7.13;1.50;;;30.30;49.80;;;;;;5044371;28;20313;-71
2024/03/10 02:01:40;;;;;;;5.10;1.60;;;30.30;49.90;;;;;;5048370;28;20183;-71
2024/03/10 02:04:09;;;;;;;6.07;1.43;;;30.30;49.50;;;;;;5049949;28;20176;-72
2024/03/10 02:06:43;;;;;;;5.37;1.20;;;30.10;49.80;;;;;;5047393;28;21179;-72
2024/03/10 02:09:16;;;;;;;5.67;1.20;;;29.90;50.80;;;;;;5047244;28;20550;-72
2024/03/10 02:11:44;;;;;;;7.47;1.97;;;30.40;50.40;;;;;;5047761;28;20239;-73
2024/03/10 02:14:11;;;;;;;10.03;1.80;;;30.80;49.40;;;;;;5030302;28;20648;-71
2024/03/10 02:16:40;;;;;;;6.07;1.13;;;31.20;47.20;;;;;;5049355;28;20204;-72
2024/03/10 02:19:07;;;;;;;3.63;1.10;;;30.80;47.50;;;;;;5050783;28;20212;-73
2024/03/10 02:21:35;;;;;;;8.70;2.60;;;30.40;48.60;;;;;;5046892;28;20204;-73
2024/03/10 02:24:19;;;;;;;6.03;1.63;;;30.30;49.30;;;;;;5050213;28;20188;-72
2024/03/10 02:26:47;;;;;;;5.67;1.27;;;30.50;49.20;;;;;;5040504;28;20691;-79
2024/03/10 02:29:18;;;;;;;6.43;1.55;;;30.30;49.30;;;;;;5041808;28;20208;-72
2024/03/10 02:48:29;;;;;;;3.67;1.40;;;30.70;49.40;;;;;;5038909;28;20267;-73
2024/03/10 02:50:56;;;;;;;6.75;1.55;;;30.40;50.70;;;;;;5050636;28;20176;-74
2024/03/10 02:53:23;;;;;;;5.03;1.20;;;30.20;52.20;;;;;;5048752;28;20203;-74
2024/03/10 02:55:50;;;;;;;4.10;1.23;;;30.40;51.60;;;;;;5045146;28;20184;-75
2024/03/10 02:58:18;;;;;;;4.37;1.60;;;30.40;51.40;;;;;;5040369;28;20335;-75
2024/03/10 03:00:47;;;;;;;4.50;1.17;;;30.60;50.70;;;;;;5045134;28;20785;-74
2024/03/10 03:03:17;;;;;;;6.28;1.40;;;30.50;51.00;;;;;;5024106;28;20269;-72
2024/03/10 03:05:45;;;;;;;3.72;1.10;;;31.00;50.20;;;;;;5048166;28;20169;-77
2024/03/10 03:08:13;;;;;;;5.53;1.33;;;30.80;49.50;;;;;;5039665;28;20668;-76
2024/03/10 03:10:40;;;;;;;7.72;1.65;;;30.90;49.80;;;;;;5045581;28;20201;-78
2024/03/10 03:13:08;;;;;;;4.97;0.95;;;30.80;50.60;;;;;;5044628;28;20180;-73
2024/03/10 03:15:36;;;;;;;3.38;0.90;;;30.80;49.90;;;;;;5044101;28;20267;-72
2024/03/10 03:18:07;;;;;;;5.30;1.33;;;30.80;50.40;;;;;;5036436;28;20180;-73
2024/03/10 03:20:35;;;;;;;5.37;1.70;;;30.80;49.30;;;;;;5044868;28;20192;-74
2024/03/10 03:23:05;;;;;;;4.97;1.30;;;30.80;49.80;;;;;;5032371;28;20220;-73
2024/03/10 03:25:32;;;;;;;6.60;1.30;;;31.30;48.70;;;;;;5045310;28;20267;-75
2024/03/10 03:28:00;;;;;;;5.25;1.27;;;31.10;47.40;;;;;;5046550;28;20187;-74
2024/03/10 03:30:27;;;;;;;4.75;1.25;;;31.10;47.50;;;;;;5045924;28;20235;-78
2024/03/10 03:32:55;;;;;;;5.47;1.55;;;31.20;47.40;;;;;;5049609;28;20246;-75
2024/03/10 03:35:26;;;;;;;5.28;1.45;;;31.40;47.40;;;;;;5038504;28;20196;-76
2024/03/10 03:37:53;;;;;;;4.18;1.20;;;31.40;46.00;;;;;;5041075;28;20713;-76
2024/03/10 03:40:23;;;;;;;5.13;1.30;;;31.40;46.90;;;;;;5043699;28;20244;-73
2024/03/10 03:42:51;;;;;;;5.53;1.23;;;31.40;47.60;;;;;;5026044;28;20181;-75
2024/03/10 03:45:19;;;;;;;4.03;1.25;;;31.60;47.20;;;;;;5031592;28;20290;-75
2024/03/10 03:47:46;;;;;;;6.95;1.70;;;31.30;47.90;;;;;;5042489;28;20275;-77
2024/03/10 03:50:15;;;;;;;4.43;1.30;;;32.00;46.60;;;;;;5046910;28;20197;-74
2024/03/10 03:52:42;;;;;;;5.57;1.70;;;32.00;46.30;;;;;;5039168;28;20188;-75
2024/03/10 03:55:12;;;;;;;5.38;1.50;;;32.20;46.20;;;;;;5042522;28;20661;-71
2024/03/10 03:57:40;;;;;;;3.33;1.25;;;31.80;47.80;;;;;;5042179;28;20660;-71
2024/03/10 04:00:12;;;;;;;3.60;1.20;;;31.30;49.40;;;;;;5044432;28;20740;-74
2024/03/10 04:02:39;;;;;;;7.57;1.35;;;31.70;49.00;;;;;;5041427;28;20188;-73
2024/03/10 04:05:10;;;;;;;9.32;1.58;;;31.80;47.90;;;;;;5041443;28;20219;-74
2024/03/10 04:07:38;;;;;;;5.40;1.10;;;31.80;48.60;;;;;;5046187;28;20545;-71
2024/03/10 04:10:09;;;;;;;4.88;1.35;;;32.30;47.70;;;;;;5044959;28;20239;-71
2024/03/10 04:12:37;;;;;;;8.32;1.30;;;32.70;47.00;;;;;;5045049;28;20231;-72
2024/03/10 04:15:06;;;;;;;6.90;1.23;;;32.40;47.20;;;;;;5030317;28;20191;-69
2024/03/10 04:17:34;;;;;;;4.28;1.67;;;32.00;48.20;;;;;;5047074;28;20190;-72
2024/03/10 04:20:01;;;;;;;5.25;0.93;;;32.60;48.10;;;;;;5043954;28;20246;-71
2024/03/10 04:22:28;;;;;;;7.38;1.30;;;32.20;48.80;;;;;;5042212;28;20233;-71
2024/03/10 04:24:56;;;;;;;5.50;1.30;;;31.50;49.70;;;;;;5038801;28;20189;-71
2024/03/10 04:27:24;;;;;;;5.15;1.35;;;31.20;52.50;;;;;;5045233;28;20543;-72
2024/03/10 04:29:51;;;;;;;7.47;1.67;;;31.30;52.60;;;;;;5045744;28;20179;-71
2024/03/10 04:32:18;;;;;;;5.82;1.42;;;31.30;52.50;;;;;;5043432;28;20239;-73
2024/03/10 04:34:46;;;;;;;7.22;1.65;;;31.90;51.40;;;;;;5045362;28;20253;-71
2024/03/10 04:37:17;;;;;;;3.20;1.00;;;32.40;49.80;;;;;;5041191;28;20255;-70
2024/03/10 04:39:44;;;;;;;7.13;1.40;;;32.20;50.50;;;;;;5046590;28;20310;-72
2024/03/10 04:42:12;;;;;;;4.10;1.27;;;31.80;51.70;;;;;;5041692;28;20184;-77
2024/03/10 04:44:39;;;;;;;6.18;1.33;;;31.30;52.80;;;;;;5040601;28;20176;-72
2024/03/10 04:47:07;;;;;;;3.15;1.27;;;31.70;51.70;;;;;;5047213;28;20327;-77
2024/03/10 04:49:35;;;;;;;5.88;1.50;;;31.40;52.10;;;;;;5039957;28;20260;-70
2024/03/10 04:52:02;;;;;;;5.55;1.40;;;31.60;51.30;;;;;;5032244;28;20195;-70
2024/03/10 04:54:30;;;;;;;6.95;1.35;;;31.60;51.50;;;;;;5043881;28;20279;-71
2024/03/10 04:56:59;;;;;;;6.97;1.10;;;31.30;51.30;;;;;;5042329;28;20177;-70
2024/03/10 04:59:26;;;;;;;4.80;1.10;;;31.30;51.70;;;;;;5039314;28;20268;-73
2024/03/10 05:01:54;;;;;;;5.15;1.05;;;31.00;52.00;;;;;;5046052;28;20180;-71
2024/03/10 05:04:21;;;;;;;3.58;1.10;;;31.30;50.70;;;;;;5044364;28;20311;-69
2024/03/10 05:06:49;;;;;;;3.55;1.00;;;31.40;50.00;;;;;;5044826;28;20541;-73
2024/03/10 05:09:17;;;;;;;4.22;0.95;;;31.30;50.20;;;;;;5040060;28;20195;-73
2024/03/10 05:11:44;;;;;;;5.85;1.33;;;31.20;50.70;;;;;;5042453;28;20172;-72
2024/03/10 05:14:12;;;;;;;3.63;0.80;;;31.70;50.30;;;;;;5048207;28;20198;-74
2024/03/10 05:16:41;;;;;;;5.70;1.10;;;31.60;51.20;;;;;;5025778;28;20220;-72
2024/03/10 05:19:11;;;;;;;6.00;1.60;;;31.30;51.40;;;;;;5047770;28;20199;-71
2024/03/10 05:21:38;;;;;;;5.55;1.38;;;31.40;51.00;;;;;;5052597;28;20184;-72
2024/03/10 05:24:07;;;;;;;4.60;1.33;;;31.90;50.50;;;;;;5044949;28;20552;-71
2024/03/10 05:26:34;;;;;;;4.88;1.65;;;30.70;52.10;;;;;;5045703;28;20199;-71
2024/03/10 05:29:02;;;;;;;6.68;1.10;;;31.30;51.80;;;;;;5042617;28;20222;-73
2024/03/10 05:31:33;;;;;;;4.65;1.35;;;31.30;51.50;;;;;;5030434;28;20643;-73
2024/03/10 05:34:03;;;;;;;8.10;1.60;;;30.80;53.90;;;;;;5042882;28;20636;-71
2024/03/10 05:36:33;;;;;;;5.43;1.15;;;30.60;55.20;;;;;;5049833;28;20192;-74
2024/03/10 05:39:00;;;;;;;5.07;1.38;;;30.90;54.10;;;;;;5049673;28;20212;-73
2024/03/10 05:41:29;;;;;;;6.28;1.00;;;30.60;55.60;;;;;;5043309;28;20181;-72
2024/03/10 05:43:57;;;;;;;3.88;1.02;;;30.80;54.70;;;;;;5045950;28;20180;-73
2024/03/10 05:46:24;;;;;;;3.20;1.13;;;31.30;54.20;;;;;;5033326;28;20212;-72
2024/03/10 05:48:52;;;;;;;5.53;1.25;;;31.40;53.90;;;;;;5049653;28;20190;-69
2024/03/10 05:51:19;;;;;;;6.65;1.48;;;30.30;56.40;;;;;;5043903;28;20200;-73
2024/03/10 05:53:49;;;;;;;7.43;1.67;;;30.00;57.20;;;;;;5049226;28;20184;-74
2024/03/10 05:56:16;;;;;;;7.03;1.90;;;31.20;54.40;;;;;;5051080;28;20189;-74
2024/03/10 05:58:45;;;;;;;4.72;1.10;;;31.20;53.50;;;;;;5045415;28;21476;-73
2024/03/10 06:01:12;;;;;;;6.97;1.40;;;31.30;54.00;;;;;;5025526;28;20192;-76
2024/03/10 06:03:39;;;;;;;3.95;1.20;;;31.80;52.90;;;;;;5031063;28;20184;-72
2024/03/10 06:06:10;;;;;;;5.03;1.63;;;31.40;53.70;;;;;;5048869;28;20180;-72
2024/03/10 06:08:37;;;;;;;10.00;1.73;;;31.00;54.50;;;;;;5047906;28;20630;-77
2024/03/10 06:11:05;;;;;;;7.00;1.27;;;30.90;55.00;;;;;;5029553;28;20215;-69
2024/03/10 06:13:32;;;;;;;6.35;1.60;;;30.40;56.40;;;;;;5047470;28;20188;-78
2024/03/10 06:16:00;;;;;;;6.47;1.55;;;30.80;55.40;;;;;;5044660;28;20618;-71
2024/03/10 06:25:22;;;;;;;8.00;1.30;;;30.50;56.70;;;;;;5044368;28;20210;-73
2024/03/10 06:26:55;;;;;;;4.53;1.25;;;30.50;56.50;;;;;;5049257;28;20199;-76
2024/03/10 06:29:23;;;;;;;7.65;1.95;;;30.30;57.50;;;;;;5044300;28;20194;-72
2024/03/10 06:31:51;;;;;;;9.30;1.90;;;31.10;55.40;;;;;;5051122;28;20180;-71
2024/03/10 06:34:18;;;;;;;8.10;1.75;;;31.00;55.20;;;;;;5042063;28;20371;-73
2024/03/10 06:36:46;;;;;;;3.13;1.20;;;30.80;55.50;;;;;;5045235;28;20191;-70
2024/03/10 06:39:19;;;;;;;4.63;1.33;;;31.10;55.90;;;;;;5049107;28;20276;-72
2024/03/10 06:41:47;;;;;;;10.38;1.88;;;31.60;54.30;;;;;;5052553;28;20279;-70
2024/03/10 06:44:19;;;;;;;6.35;1.50;;;30.70;56.00;;;;;;5045126;28;20274;-72
2024/03/10 06:46:46;;;;;;;7.20;1.85;;;30.60;56.90;;;;;;5048790;28;20233;-70
2024/03/10 06:49:14;;;;;;;6.68;1.48;;;31.10;55.30;;;;;;5042651;28;20498;-71
2024/03/10 06:51:42;;;;;;;7.28;1.83;;;30.10;57.90;;;;;;5043357;28;20184;-70
2024/03/10 06:54:10;;;;;;;8.77;1.80;;;30.50;57.20;;;;;;5040644;28;20327;-71
2024/03/10 06:56:37;;;;;;;5.63;1.40;;;30.00;57.80;;;;;;5047868;28;20180;-71
2024/03/10 06:59:05;;;;;;;9.38;1.92;;;29.10;60.50;;;;;;5042037;28;20208;-72
2024/03/10 07:01:32;;;;;;;6.37;1.70;;;29.80;59.80;;;;;;5046530;28;20194;-70
2024/03/10 07:03:59;;;;;;;5.68;1.60;;;30.20;57.80;;;;;;5041851;28;20271;-71
2024/03/10 07:06:26;;;;;;;4.35;1.70;;;30.10;58.70;;;;;;5048098;28;20187;-71
2024/03/10 07:09:00;;;;;;;7.15;2.08;;;30.50;56.50;;;;;;5046975;28;20180;-71
2024/03/10 07:11:28;;;;;;;8.48;1.85;;;29.80;58.70;;;;;;5049552;28;20191;-72
2024/03/10 07:14:00;;;;;;;7.25;2.13;;;29.90;58.20;;;;;;5043590;28;20186;-70
2024/03/10 07:16:27;;;;;;;9.43;1.92;;;30.30;56.80;;;;;;5050585;28;20270;-73
2024/03/10 07:18:54;;;;;;;8.80;2.00;;;30.20;57.20;;;;;;5040244;28;20677;-71
2024/03/10 07:21:22;;;;;;;9.35;1.85;;;30.20;56.60;;;;;;5042004;28;20578;-72
2024/03/10 07:23:49;;;;;;;8.85;2.17;;;29.90;57.70;;;;;;5042512;28;20196;-71
2024/03/10 07:26:19;;;;;;;10.82;2.10;;;30.10;56.90;;;;;;5042330;28;20182;-69
2024/03/10 07:28:47;;;;;;;8.90;2.13;;;29.80;58.30;;;;;;5038331;28;20191;-72
2024/03/10 07:31:14;;;;;;;11.52;2.83;;;29.70;58.40;;;;;;5044915;28;20188;-70
2024/03/10 07:33:42;;;;;;;9.87;2.87;;;29.60;59.10;;;;;;5041277;28;20310;-70
2024/03/10 07:36:14;;;;;;;9.23;2.50;;;29.30;60.20;;;;;;5029572;28;20552;-71
2024/03/10 07:38:42;;;;;;;15.70;2.83;;;29.30;59.60;;;;;;5046288;28;20200;-74
2024/03/10 07:41:09;;;;;;;13.57;2.77;;;28.50;61.70;;;;;;5042543;28;20222;-71
2024/03/10 07:43:37;;;;;;;13.47;2.33;;;28.30;61.90;;;;;;5039575;28;20203;-74
2024/03/10 07:46:07;;;;;;;10.63;2.80;;;28.10;62.30;;;;;;5045999;28;20175;-72
2024/03/10 07:48:35;;;;;;;14.83;2.67;;;27.70;63.30;;;;;;5040399;28;20169;-75
2024/03/10 07:51:06;;;;;;;11.80;2.63;;;27.40;64.20;;;;;;5042845;28;20230;-77
2024/03/10 07:53:33;;;;;;;13.43;2.20;;;27.30;64.90;;;;;;5045795;28;20187;-70
2024/03/10 07:56:01;;;;;;;10.47;2.13;;;26.90;66.50;;;;;;5024517;28;20198;-70
2024/03/10 07:58:29;;;;;;;12.83;2.57;;;26.80;67.20;;;;;;5040663;28;20188;-70
2024/03/10 08:00:57;;;;;;;17.30;4.80;;;26.80;68.00;;;;;;5044000;28;20188;-71
2024/03/10 08:03:25;;;;;;;14.43;3.60;;;26.80;67.90;;;;;;5043603;28;20212;-73
2024/03/10 08:05:55;;;;;;;17.13;5.40;;;26.60;69.00;;;;;;5025714;28;20185;-77
2024/03/10 08:08:27;;;;;;;13.47;3.80;;;26.60;69.50;;;;;;5041017;28;20196;-77
2024/03/10 08:10:55;;;;;;;18.43;4.03;;;26.50;69.90;;;;;;5040814;28;20179;-76
2024/03/10 08:13:24;;;;;;;16.53;3.23;;;26.50;70.30;;;;;;5040687;28;20188;-76
2024/03/10 08:15:52;;;;;;;12.80;2.83;;;26.40;70.30;;;;;;5044163;28;20186;-73
2024/03/10 08:18:19;;;;;;;12.70;3.50;;;26.30;70.80;;;;;;5038723;28;20259;-76
2024/03/10 08:20:54;;;;;;;12.50;2.80;;;26.20;71.90;;;;;;5041095;28;20195;-76
2024/03/10 08:23:21;;;;;;;16.80;3.33;;;26.20;71.80;;;;;;5047938;28;20686;-76
2024/03/10 08:25:49;;;;;;;24.07;4.00;;;26.10;72.00;;;;;;5048114;28;20273;-76
2024/03/10 08:28:19;;;;;;;13.50;2.63;;;26.10;72.20;;;;;;5040717;28;20639;-75
2024/03/10 08:30:46;;;;;;;16.27;2.80;;;26.00;72.40;;;;;;5043090;28;20249;-73
2024/03/10 08:33:14;;;;;;;16.43;2.77;;;25.90;72.70;;;;;;5045870;28;20243;-76
2024/03/10 08:35:41;;;;;;;10.77;2.70;;;25.90;73.00;;;;;;5045565;28;20196;-76
2024/03/10 08:38:09;;;;;;;15.33;2.87;;;25.80;73.10;;;;;;5045915;28;20238;-77
2024/03/10 08:40:37;;;;;;;16.17;3.10;;;25.80;73.70;;;;;;5041637;28;20250;-75
2024/03/10 08:43:08;;;;;;;16.40;3.30;;;25.80;73.80;;;;;;5045281;28;20246;-78
2024/03/10 08:45:37;;;;;;;13.00;2.87;;;25.80;74.30;;;;;;5045832;28;20186;-75
2024/03/10 08:48:09;;;;;;;20.53;3.63;;;25.70;74.60;;;;;;5038031;28;20635;-76
2024/03/10 08:50:37;;;;;;;15.07;3.00;;;25.80;74.50;;;;;;5047226;28;21052;-76
2024/03/10 08:53:05;;;;;;;16.30;3.63;;;25.80;74.40;;;;;;5031130;28;20203;-78
2024/03/10 08:55:32;;;;;;;16.03;2.90;;;25.60;74.80;;;;;;5051808;28;20255;-74
2024/03/10 08:58:03;;;;;;;18.27;3.07;;;25.60;75.00;;;;;;5045549;28;20194;-75
2024/03/10 09:00:31;;;;;;;18.73;2.87;;;25.50;75.50;;;;;;5048016;28;20209;-74
2024/03/10 09:03:03;;;;;;;15.43;3.03;;;25.50;75.70;;;;;;5043776;28;20235;-75
2024/03/10 09:05:32;;;;;;;15.47;3.13;;;25.50;75.50;;;;;;5046830;28;20721;-74
2024/03/10 09:07:59;;;;;;;15.40;3.03;;;25.60;75.70;;;;;;5043235;28;20569;-76
2024/03/10 09:10:27;;;;;;;16.37;2.97;;;25.50;76.00;;;;;;5047492;28;20211;-75
2024/03/10 09:12:55;;;;;;;16.90;3.60;;;25.40;76.30;;;;;;5033347;28;20196;-73
2024/03/10 09:15:23;;;;;;;18.30;3.90;;;25.40;76.40;;;;;;5043520;28;20258;-76
2024/03/10 09:17:52;;;;;;;13.03;2.83;;;25.40;76.70;;;;;;5043219;28;20187;-74
2024/03/10 09:20:20;;;;;;;21.40;3.73;;;25.40;76.70;;;;;;5045742;28;20314;-75
2024/03/10 09:22:51;;;;;;;14.70;3.07;;;25.40;76.90;;;;;;5048105;28;20836;-77
2024/03/10 09:25:22;;;;;;;19.07;3.50;;;25.40;77.00;;;;;;5031424;28;20212;-74
2024/03/10 09:27:51;;;;;;;16.83;3.00;;;25.40;77.40;;;;;;5043128;28;20226;-74
2024/03/10 09:30:23;;;;;;;11.97;3.77;;;25.30;77.50;;;;;;5045947;28;20191;-75
2024/03/10 09:32:54;;;;;;;21.57;3.90;;;25.30;77.90;;;;;;5047296;28;20224;-76
2024/03/10 09:35:28;;;;;;;17.70;3.70;;;25.30;77.90;;;;;;5028691;28;20296;-75
2024/03/10 09:38:04;;;;;;;21.67;3.90;;;25.20;77.70;;;;;;5049412;28;20176;-74
2024/03/10 09:40:32;;;;;;;16.97;3.50;;;25.20;78.00;;;;;;5049640;28;20218;-75
2024/03/10 09:43:11;;;;;;;13.57;3.20;;;25.30;78.20;;;;;;5047108;28;20237;-76
2024/03/10 09:45:51;;;;;;;13.43;2.57;;;25.20;78.40;;;;;;5026999;28;20195;-73
2024/03/10 09:48:26;;;;;;;17.73;3.50;;;25.10;78.70;;;;;;5044206;28;20180;-75
2024/03/10 09:50:56;;;;;;;21.50;4.13;;;25.10;78.70;;;;;;5050248;28;20175;-74
2024/03/10 09:53:25;;;;;;;14.43;2.93;;;25.00;79.20;;;;;;5045640;28;20180;-75
2024/03/10 09:55:53;;;;;;;15.97;4.07;;;25.00;79.20;;;;;;5046128;28;20181;-78
2024/03/10 09:58:33;;;;;;;17.37;4.43;;;25.00;79.60;;;;;;5053424;28;20223;-74
2024/03/10 10:01:12;;;;;;;13.50;3.80;;;25.00;79.60;;;;;;5032426;28;20195;-77
2024/03/10 10:03:50;;;;;;;21.83;4.63;;;25.00;79.80;;;;;;5050948;28;20176;-77
2024/03/10 10:06:19;;;;;;;17.83;5.10;;;24.90;80.00;;;;;;5029642;28;20196;-75
2024/03/10 10:08:54;;;;;;;19.43;5.03;;;24.90;80.30;;;;;;5035399;28;20578;-71
2024/03/10 10:11:25;;;;;;;15.67;5.53;;;24.90;80.40;;;;;;5042508;28;20533;-77
2024/03/10 10:14:15;;;;;;;22.03;5.83;;;24.90;80.40;;;;;;5045534;28;20189;-77
2024/03/10 10:16:56;;;;;;;22.53;6.23;;;24.90;80.70;;;;;;5050995;28;20262;-76
2024/03/10 10:19:29;;;;;;;16.07;5.13;;;24.90;80.50;;;;;;5043970;28;20201;-75
2024/03/10 10:21:58;;;;;;;18.67;5.80;;;25.00;80.80;;;;;;5046372;28;20694;-71
2024/03/10 10:24:28;;;;;;;21.20;6.10;;;24.90;80.90;;;;;;5047606;28;20298;-74
2024/03/10 10:27:02;;;;;;;19.17;6.00;;;24.90;80.80;;;;;;5042595;28;20385;-74
2024/03/10 10:29:30;;;;;;;17.43;6.47;;;24.90;81.00;;;;;;5037724;28;20184;-74
2024/03/10 10:32:24;;;;;;;15.40;6.60;;;24.80;81.10;;;;;;5049055;28;20180;-77
2024/03/10 10:34:53;;;;;;;18.13;6.00;;;24.80;81.40;;;;;;5028053;28;20285;-74
2024/03/10 10:37:21;;;;;;;18.47;6.63;;;24.70;81.10;;;;;;5025663;28;20184;-76
2024/03/10 10:39:48;;;;;;;18.20;7.37;;;24.70;81.50;;;;;;5028178;28;20212;-77
2024/03/10 10:42:16;;;;;;;21.07;6.57;;;24.70;81.10;;;;;;5023698;28;20209;-72
2024/03/10 10:44:44;;;;;;;22.03;6.20;;;24.70;81.20;;;;;;5024805;28;20185;-75
2024/03/10 10:47:14;;;;;;;16.73;5.80;;;24.70;81.30;;;;;;5026633;28;20286;-73
2024/03/10 10:49:44;;;;;;;19.33;6.43;;;24.70;80.90;;;;;;5027076;28;20184;-75
2024/03/10 10:52:13;;;;;;;19.97;6.20;;;24.70;80.70;;;;;;5026296;28;20189;-75
2024/03/10 10:54:43;;;;;;;18.03;6.80;;;24.70;80.50;;;;;;5025745;28;20673;-72
2024/03/10 10:57:14;;;;;;;19.23;6.87;;;24.70;80.40;;;;;;5029788;28;20192;-74
2024/03/10 10:59:48;;;;;;;17.50;6.20;;;24.80;80.50;;;;;;5029600;28;20680;-72
2024/03/10 11:02:20;;;;;;;19.30;6.53;;;24.70;80.50;;;;;;5028884;28;20181;-74
2024/03/10 11:04:53;;;;;;;22.17;6.93;;;24.70;80.70;;;;;;5022304;28;20204;-74
2024/03/10 11:07:31;;;;;;;20.33;7.07;;;24.70;80.50;;;;;;5028510;28;20192;-75
2024/03/10 11:09:58;;;;;;;17.87;6.37;;;24.70;80.60;;;;;;5023984;28;20189;-75
2024/03/10 11:12:26;;;;;;;15.07;6.97;;;24.60;80.60;;;;;;5025453;28;20584;-73
2024/03/10 11:14:55;;;;;;;22.20;6.90;;;24.60;80.20;;;;;;5028153;28;20276;-72
2024/03/10 11:17:29;;;;;;;21.93;7.47;;;24.60;79.90;;;;;;5024100;28;20678;-74
2024/03/10 11:20:04;;;;;;;16.50;5.97;;;24.60;80.00;;;;;;5026006;28;20208;-74
2024/03/10 11:22:55;;;;;;;19.50;6.63;;;24.60;80.00;;;;;;5026929;28;20490;-75
2024/03/10 11:25:23;;;;;;;18.13;6.63;;;24.60;79.90;;;;;;5024563;28;20188;-74
2024/03/10 11:27:51;;;;;;;16.67;6.03;;;24.60;79.70;;;;;;5027413;28;20181;-74
2024/03/10 11:30:45;;;;;;;18.33;6.43;;;24.60;79.60;;;;;;5018344;28;20184;-73
2024/03/10 11:33:13;;;;;;;20.43;5.27;;;24.60;79.50;;;;;;5026351;28;20242;-77
2024/03/10 11:35:41;;;;;;;17.93;6.03;;;24.60;79.30;;;;;;5045210;28;20177;-74
2024/03/10 11:38:12;;;;;;;16.50;5.37;;;24.60;79.30;;;;;;5043107;28;20193;-75
2024/03/10 11:40:40;;;;;;;23.00;5.57;;;24.60;79.30;;;;;;5031680;28;20215;-74
2024/03/10 11:43:14;;;;;;;19.00;5.80;;;24.60;79.20;;;;;;5044731;28;20187;-77
2024/03/10 11:45:41;;;;;;;18.90;5.40;;;24.60;79.10;;;;;;5040551;28;20191;-74
2024/03/10 11:48:10;;;;;;;13.17;4.93;;;24.60;78.70;;;;;;5049593;28;20188;-76
2024/03/10 11:50:37;;;;;;;17.33;5.60;;;24.50;79.00;;;;;;5045343;28;20262;-79
2024/03/10 11:53:05;;;;;;;18.07;5.47;;;24.50;79.00;;;;;;5047565;28;20192;-75
2024/03/10 11:55:36;;;;;;;21.77;6.10;;;24.50;78.90;;;;;;5052407;28;20184;-77
2024/03/10 11:58:04;;;;;;;16.23;5.50;;;24.40;79.20;;;;;;5031115;28;20751;-74
2024/03/10 12:00:35;;;;;;;18.63;5.67;;;24.50;79.40;;;;;;5044378;28;20238;-78
2024/03/10 12:03:06;;;;;;;20.63;5.93;;;24.40;79.40;;;;;;5029092;28;20271;-74
2024/03/10 12:05:36;;;;;;;18.43;5.73;;;24.40;79.80;;;;;;5026808;28;20200;-75
2024/03/10 12:08:05;;;;;;;14.77;5.80;;;24.40;79.70;;;;;;5026705;28;20189;-74
2024/03/10 12:10:36;;;;;;;25.30;6.50;;;24.40;80.00;;;;;;5042920;28;20195;-74
2024/03/10 12:13:05;;;;;;;19.83;5.93;;;24.40;79.60;;;;;;5045455;28;20199;-76
2024/03/10 12:15:37;;;;;;;20.97;6.73;;;24.40;79.30;;;;;;5045845;28;20205;-74
2024/03/10 12:18:06;;;;;;;20.53;5.90;;;24.40;79.20;;;;;;5025516;28;20176;-73
2024/03/10 12:20:35;;;;;;;17.80;6.37;;;24.40;79.20;;;;;;5046708;28;20220;-75
2024/03/10 12:23:13;;;;;;;15.53;5.97;;;24.40;79.30;;;;;;5049348;28;20222;-75
2024/03/10 12:25:44;;;;;;;16.27;5.07;;;24.40;79.00;;;;;;5046241;28;20176;-75
2024/03/10 12:28:13;;;;;;;12.23;5.63;;;24.30;78.50;;;;;;5029363;28;20173;-74
2024/03/10 12:30:44;;;;;;;15.93;6.40;;;24.40;78.30;;;;;;5048076;28;20191;-77
2024/03/10 12:33:12;;;;;;;24.50;5.53;;;24.40;78.50;;;;;;5044767;28;20285;-74
2024/03/10 12:35:39;;;;;;;17.93;5.37;;;24.40;78.50;;;;;;5031160;28;20187;-74
2024/03/10 12:38:10;;;;;;;15.77;5.63;;;24.40;78.10;;;;;;5046116;28;20555;-75
2024/03/10 12:40:39;;;;;;;16.63;5.63;;;24.40;78.20;;;;;;5047025;28;20211;-73
2024/03/10 12:43:06;;;;;;;15.77;4.93;;;24.30;77.90;;;;;;5042768;28;20177;-74
2024/03/10 12:45:33;;;;;;;16.37;4.97;;;24.30;77.60;;;;;;5050366;28;20207;-75
2024/03/10 12:48:01;;;;;;;14.00;4.53;;;24.40;77.60;;;;;;5047003;28;20235;-76
2024/03/10 12:50:28;;;;;;;15.57;5.23;;;24.30;77.60;;;;;;5047448;28;20282;-74
2024/03/10 12:52:57;;;;;;;14.23;5.13;;;24.30;78.00;;;;;;5052422;28;20191;-73
2024/03/10 12:55:24;;;;;;;21.53;5.57;;;24.30;77.70;;;;;;5045964;28;20266;-74
2024/03/10 12:57:52;;;;;;;13.53;4.60;;;24.30;76.90;;;;;;5043524;28;20676;-74
2024/03/10 13:00:27;;;;;;;14.60;5.17;;;24.40;77.00;;;;;;5051628;28;20243;-73
2024/03/10 13:02:55;;;;;;;15.13;5.47;;;24.40;77.20;;;;;;5044546;28;20185;-79
2024/03/10 13:05:23;;;;;;;13.73;4.90;;;24.30;77.40;;;;;;5046519;28;20208;-73
2024/03/10 13:07:51;;;;;;;15.13;5.53;;;24.30;77.40;;;;;;5034773;28;20191;-76
2024/03/10 13:10:20;;;;;;;15.40;5.67;;;24.30;77.20;;;;;;5042167;28;20179;-75
2024/03/10 13:12:47;;;;;;;19.77;5.83;;;24.30;77.40;;;;;;5047479;28;20200;-75
2024/03/10 13:15:15;;;;;;;14.60;5.70;;;24.30;77.70;;;;;;5048816;28;20179;-75